Time;durP1;ratioP1;P1;durP2;ratioP2;P2;SDS_P1;SDS_P2;PMS_P1;PMS_P2;Temp;Humidity;BMP_temperature;BMP_pressure;BME280_temperature;BME280_humidity;BME280_pressure;Samples;Min_cycle;Max_cycle;Signal;HPM_P1;HPM_P2
2022/08/17 00:00:48;;;;;;;43.25;27.00;;;19.60;99.90;;;;;;5154383;27;20423;-75
2022/08/17 00:03:32;;;;;;;40.65;26.65;;;19.60;99.90;;;;;;5119431;27;20047;-69
2022/08/17 00:06:00;;;;;;;39.53;26.92;;;19.60;99.90;;;;;;5154407;27;20078;-69
2022/08/17 00:08:32;;;;;;;44.40;28.38;;;19.60;99.90;;;;;;5135935;27;20047;-71
2022/08/17 00:10:59;;;;;;;48.40;28.27;;;19.60;99.90;;;;;;5136047;27;20049;-68
2022/08/17 00:13:31;;;;;;;47.55;28.08;;;19.60;99.90;;;;;;5118632;27;20043;-69
2022/08/17 00:16:19;;;;;;;47.78;28.90;;;19.60;99.90;;;;;;5154622;27;20362;-69
2022/08/17 00:18:46;;;;;;;48.40;31.35;;;19.60;99.90;;;;;;5154193;27;20050;-68
2022/08/17 00:21:13;;;;;;;50.20;30.80;;;19.50;99.90;;;;;;5135571;27;20054;-69
2022/08/17 00:23:41;;;;;;;53.38;31.98;;;19.50;99.90;;;;;;5135509;27;20385;-69
2022/08/17 00:26:08;;;;;;;57.08;33.55;;;19.40;99.90;;;;;;5135499;27;20050;-69
2022/08/17 00:28:33;;;;;;;59.80;33.45;;;19.40;99.90;;;;;;5154631;27;20387;-69
2022/08/17 00:30:59;;;;;;;53.00;32.27;;;19.40;99.90;;;;;;5153867;27;20042;-70
2022/08/17 00:33:29;;;;;;;58.60;34.30;;;19.30;99.90;;;;;;5136247;27;20201;-70
2022/08/17 00:35:55;;;;;;;56.47;33.97;;;19.30;99.90;;;;;;5118454;27;20097;-68
2022/08/17 00:38:22;;;;;;;58.42;35.40;;;19.30;99.90;;;;;;5154217;27;20035;-69
2022/08/17 00:40:49;;;;;;;;;;;19.20;99.90;;;;;;5157931;27;20543;-71
2022/08/17 00:43:21;;;;;;;57.33;34.47;;;19.10;99.90;;;;;;5157802;27;19950;-69
2022/08/17 00:45:48;;;;;;;54.03;33.65;;;19.00;99.90;;;;;;5138941;27;20055;-69
2022/08/17 00:48:14;;;;;;;59.30;34.63;;;19.00;99.90;;;;;;5158023;27;20118;-69
2022/08/17 00:50:49;;;;;;;55.00;32.90;;;19.00;99.90;;;;;;5157768;27;20129;-68
2022/08/17 00:53:15;;;;;;;58.45;32.83;;;19.00;99.90;;;;;;5157397;27;20087;-70
2022/08/17 00:55:40;;;;;;;56.88;33.47;;;19.00;99.90;;;;;;5157618;27;20042;-69
2022/08/17 00:58:06;;;;;;;53.53;32.63;;;19.00;99.90;;;;;;5139322;27;20061;-70
2022/08/17 01:00:36;;;;;;;57.30;33.53;;;19.00;99.90;;;;;;5122912;27;20082;-69
2022/08/17 01:03:10;;;;;;;59.17;35.78;;;19.00;99.90;;;;;;5157416;27;20131;-68
2022/08/17 01:05:38;;;;;;;54.35;34.42;;;19.00;99.90;;;;;;5139500;27;20170;-69
2022/08/17 01:08:06;;;;;;;57.92;35.72;;;18.90;99.90;;;;;;5122769;27;20058;-68
2022/08/17 01:10:38;;;;;;;62.80;37.28;;;18.90;99.90;;;;;;5157234;27;20081;-69
2022/08/17 01:13:06;;;;;;;61.22;36.70;;;18.80;99.90;;;;;;5139852;27;20095;-69
2022/08/17 01:15:36;;;;;;;64.22;37.50;;;18.80;99.90;;;;;;5121803;27;20047;-70
2022/08/17 01:18:04;;;;;;;67.00;38.72;;;18.70;99.90;;;;;;5139641;27;20039;-68
2022/08/17 01:20:31;;;;;;;70.05;37.97;;;18.70;99.90;;;;;;5157741;27;20420;-68
2022/08/17 01:22:57;;;;;;;64.10;38.70;;;18.60;99.90;;;;;;5157084;27;20099;-68
2022/08/17 01:25:23;;;;;;;56.38;36.33;;;18.60;99.90;;;;;;5139307;27;20125;-75
2022/08/17 01:27:49;;;;;;;62.63;35.58;;;18.60;99.90;;;;;;5138030;27;20547;-69
2022/08/17 01:30:15;;;;;;;65.20;38.00;;;18.60;99.90;;;;;;5139156;27;20151;-69
2022/08/17 01:32:41;;;;;;;65.32;37.92;;;18.60;99.90;;;;;;5104540;27;20098;-68
2022/08/17 01:35:07;;;;;;;67.17;39.17;;;18.50;99.90;;;;;;5138855;27;20489;-68
2022/08/17 01:37:37;;;;;;;59.30;36.92;;;18.50;99.90;;;;;;5138554;27;20046;-71
2022/08/17 01:40:11;;;;;;;56.33;34.83;;;18.50;99.90;;;;;;5156977;27;20131;-68
2022/08/17 01:42:40;;;;;;;63.08;37.00;;;18.40;99.90;;;;;;5156614;27;20042;-69
2022/08/17 01:45:29;;;;;;;66.75;37.42;;;18.40;99.90;;;;;;5138326;27;20039;-67
2022/08/17 01:47:55;;;;;;;61.10;37.78;;;18.40;99.90;;;;;;5156650;27;20046;-70
2022/08/17 01:50:33;;;;;;;67.75;39.22;;;18.40;99.90;;;;;;5138116;27;20039;-71
2022/08/17 01:53:24;;;;;;;60.10;37.45;;;18.30;99.90;;;;;;5138463;27;20209;-69
2022/08/17 01:56:04;;;;;;;64.05;38.13;;;18.30;99.90;;;;;;5138004;27;20047;-69
2022/08/17 01:58:32;;;;;;;64.80;38.38;;;18.40;99.90;;;;;;5156940;27;20053;-68
2022/08/17 02:00:58;;;;;;;67.85;40.42;;;18.40;99.90;;;;;;5156233;27;20053;-77
2022/08/17 02:03:24;;;;;;;71.00;39.67;;;18.40;99.90;;;;;;5137926;27;20038;-69
2022/08/17 02:05:52;;;;;;;68.85;39.60;;;18.40;99.90;;;;;;5156050;27;20046;-68
2022/08/17 02:08:19;;;;;;;67.82;39.90;;;18.40;99.90;;;;;;5121082;27;20382;-69
2022/08/17 02:10:46;;;;;;;65.13;39.20;;;18.40;99.90;;;;;;5156009;27;20068;-70
2022/08/17 02:13:12;;;;;;;;;;;18.40;99.90;;;;;;5156545;27;20089;-69
2022/08/17 02:15:40;;;;;;;64.30;38.15;;;18.40;99.90;;;;;;5156399;27;19982;-69
2022/08/17 02:18:06;;;;;;;64.53;38.33;;;18.40;99.90;;;;;;5156284;27;20125;-69
2022/08/17 02:20:32;;;;;;;61.83;37.78;;;18.40;99.90;;;;;;5137444;27;20126;-71
2022/08/17 02:23:02;;;;;;;65.82;37.97;;;18.40;99.90;;;;;;5137550;27;20053;-68
2022/08/17 02:25:30;;;;;;;66.97;36.85;;;18.50;99.90;;;;;;5120367;27;20046;-75
2022/08/17 02:27:56;;;;;;;62.47;37.67;;;18.40;99.90;;;;;;5155589;27;20533;-70
2022/08/17 02:30:23;;;;;;;63.67;38.07;;;18.40;99.90;;;;;;5087260;27;20039;-70
2022/08/17 02:32:53;;;;;;;66.82;39.75;;;18.40;99.90;;;;;;5155784;27;20394;-70
2022/08/17 02:35:22;;;;;;;72.28;40.45;;;18.40;99.90;;;;;;5137685;27;20047;-69
2022/08/17 02:37:49;;;;;;;69.72;39.88;;;18.40;99.90;;;;;;5119865;27;20085;-68
2022/08/17 02:40:15;;;;;;;70.15;41.13;;;18.30;99.90;;;;;;5155430;27;20042;-70
2022/08/17 02:42:43;;;;;;;73.97;44.38;;;18.30;99.90;;;;;;5120136;27;20038;-69
2022/08/17 02:45:13;;;;;;;68.80;39.55;;;18.30;99.90;;;;;;5156146;27;20038;-68
2022/08/17 02:47:40;;;;;;;67.18;39.85;;;18.20;99.90;;;;;;5155041;27;20513;-69
2022/08/17 02:50:10;;;;;;;70.80;41.60;;;18.20;99.90;;;;;;5119503;27;20046;-68
2022/08/17 02:52:39;;;;;;;61.67;38.28;;;18.20;99.90;;;;;;5136869;27;20058;-70
2022/08/17 02:55:20;;;;;;;67.65;39.90;;;18.20;99.90;;;;;;5136694;27;20115;-70
2022/08/17 02:57:47;;;;;;;63.42;37.55;;;18.20;99.90;;;;;;5136327;27;20129;-71
2022/08/17 03:00:28;;;;;;;61.83;36.10;;;18.20;99.90;;;;;;5154977;27;20089;-70
2022/08/17 03:02:55;;;;;;;61.08;36.75;;;18.20;99.90;;;;;;5154746;27;20103;-70
2022/08/17 03:05:24;;;;;;;63.75;37.35;;;18.20;99.90;;;;;;5136865;27;20043;-71
2022/08/17 03:07:51;;;;;;;61.83;36.50;;;18.20;99.90;;;;;;5136009;27;20038;-70
2022/08/17 03:10:17;;;;;;;63.92;38.40;;;18.20;99.90;;;;;;5118756;27;20392;-70
2022/08/17 03:12:44;;;;;;;66.10;38.08;;;18.20;99.90;;;;;;5154104;27;20039;-72
2022/08/17 03:15:11;;;;;;;;;;;18.20;99.90;;;;;;5119547;27;20551;-69
2022/08/17 03:17:37;;;;;;;65.28;37.47;;;18.20;99.90;;;;;;5136115;27;19919;-70
2022/08/17 03:20:05;;;;;;;66.73;38.37;;;18.10;99.90;;;;;;5135869;27;20035;-72
2022/08/17 03:22:35;;;;;;;61.47;37.13;;;18.10;99.90;;;;;;5154285;27;20090;-70
2022/08/17 03:25:01;;;;;;;65.25;38.00;;;18.10;99.90;;;;;;5119086;27;20058;-70
2022/08/17 03:27:26;;;;;;;63.73;37.77;;;18.10;99.90;;;;;;5154146;27;20034;-70
2022/08/17 03:29:53;;;;;;;66.97;39.23;;;18.10;99.90;;;;;;5118934;27;20516;-70
2022/08/17 03:32:19;;;;;;;68.95;38.85;;;18.10;99.90;;;;;;5135771;27;20050;-70
2022/08/17 03:34:45;;;;;;;70.07;39.67;;;18.10;99.90;;;;;;5118658;27;20051;-71
2022/08/17 03:37:11;;;;;;;66.93;36.80;;;18.20;99.90;;;;;;5154358;27;20035;-70
2022/08/17 03:39:37;;;;;;;63.57;38.23;;;18.20;99.90;;;;;;5154061;27;20042;-70
2022/08/17 03:42:11;;;;;;;62.47;37.38;;;18.20;99.90;;;;;;5154067;27;20043;-70
2022/08/17 03:44:37;;;;;;;66.85;38.28;;;18.20;99.90;;;;;;5154116;27;20094;-70
2022/08/17 03:58:01;;;;;;;64.82;37.05;;;18.20;99.90;;;;;;5121783;27;20309;-71
2022/08/17 04:00:26;;;;;;;60.47;37.70;;;18.20;99.90;;;;;;5153789;27;20046;-71
2022/08/17 04:02:53;;;;;;;58.73;36.57;;;18.30;99.90;;;;;;5135838;27;20041;-72
2022/08/17 04:05:19;;;;;;;62.08;35.92;;;18.30;99.90;;;;;;5135485;27;20362;-71
2022/08/17 04:07:46;;;;;;;60.95;37.00;;;18.40;99.90;;;;;;5153822;27;20082;-70
2022/08/17 04:10:12;;;;;;;66.18;37.78;;;18.40;99.90;;;;;;5153794;27;20049;-79
2022/08/17 04:13:00;;;;;;;;;;;18.40;99.90;;;;;;5154025;27;20047;-73
2022/08/17 04:15:26;;;;;;;82.20;40.25;;;18.20;99.90;;;;;;5138109;27;19919;-73
2022/08/17 04:17:53;;;;;;;79.50;38.85;;;18.00;99.90;;;;;;5139268;27;20175;-75
2022/08/17 04:20:20;;;;;;;;;;;17.90;99.90;;;;;;5122784;27;20046;-76
2022/08/17 04:22:55;;;;;;;74.63;38.05;;;18.00;99.90;;;;;;5158046;27;19926;-75
2022/08/17 04:25:20;;;;;;;76.05;41.97;;;18.00;99.90;;;;;;5157473;27;20462;-74
2022/08/17 04:27:47;;;;;;;85.30;41.90;;;18.10;99.90;;;;;;5157581;27;20091;-74
2022/08/17 04:30:13;;;;;;;82.78;43.42;;;18.10;99.90;;;;;;5139328;27;20042;-74
2022/08/17 04:33:04;;;;;;;83.07;43.33;;;18.20;99.90;;;;;;5158315;27;20065;-75
2022/08/17 04:35:36;;;;;;;87.07;44.17;;;18.10;99.90;;;;;;5157502;27;20528;-74
2022/08/17 04:38:01;;;;;;;84.15;43.00;;;18.20;99.90;;;;;;5158527;27;20080;-75
2022/08/17 04:43:16;;;;;;;79.82;42.08;;;18.10;99.90;;;;;;5157887;27;20490;-75
2022/08/17 04:45:50;;;;;;;79.80;43.00;;;18.20;99.90;;;;;;5122497;27;20102;-75
2022/08/17 04:48:16;;;;;;;79.47;42.13;;;18.10;99.90;;;;;;5159295;27;20065;-77
2022/08/17 04:50:45;;;;;;;81.43;42.47;;;18.10;99.90;;;;;;5140171;27;20502;-77
2022/08/17 04:53:11;;;;;;;78.05;41.88;;;18.10;99.90;;;;;;5158829;27;20046;-75
2022/08/17 04:55:38;;;;;;;78.22;42.85;;;18.10;99.90;;;;;;5134140;27;20050;-82
2022/08/17 04:58:04;;;;;;;72.68;40.40;;;18.10;99.90;;;;;;5170110;27;20373;-74
2022/08/17 05:00:30;;;;;;;74.95;41.17;;;18.10;99.90;;;;;;5167971;27;20042;-75
2022/08/17 05:02:56;;;;;;;79.88;43.00;;;18.10;99.90;;;;;;5150785;27;20054;-74
2022/08/17 05:05:25;;;;;;;82.85;42.95;;;18.10;99.90;;;;;;5164537;27;20166;-74
2022/08/17 05:07:55;;;;;;;74.68;42.13;;;18.10;99.90;;;;;;5126265;27;20122;-74
2022/08/17 05:10:23;;;;;;;78.70;42.38;;;18.10;99.90;;;;;;5161034;27;20422;-74
2022/08/17 05:13:00;;;;;;;73.10;42.15;;;18.10;99.90;;;;;;5159764;27;20054;-76
2022/08/17 05:15:27;;;;;;;79.93;42.45;;;18.20;99.90;;;;;;5158531;27;20593;-75
2022/08/17 05:17:53;;;;;;;;;;;18.20;99.90;;;;;;5122735;27;20053;-74
2022/08/17 05:20:19;;;;;;;81.18;44.20;;;18.20;99.90;;;;;;5158015;27;19919;-79
2022/08/17 05:22:50;;;;;;;79.40;42.38;;;18.10;99.90;;;;;;5156284;27;20058;-74
2022/08/17 05:25:25;;;;;;;85.95;41.95;;;18.10;99.90;;;;;;5156327;27;20086;-74
2022/08/17 05:27:52;;;;;;;78.53;42.00;;;18.10;99.90;;;;;;5138262;27;20035;-76
2022/08/17 05:30:17;;;;;;;;;;;18.20;99.90;;;;;;5156840;27;20047;-74
2022/08/17 05:33:00;;;;;;;69.03;40.87;;;18.20;99.90;;;;;;5156120;27;19925;-73
2022/08/17 05:35:30;;;;;;;76.38;42.00;;;18.30;99.90;;;;;;5138279;27;20047;-74
2022/08/17 05:37:56;;;;;;;73.20;40.92;;;18.30;99.90;;;;;;5156323;27;20038;-74
2022/08/17 05:40:22;;;;;;;76.87;40.43;;;18.30;99.90;;;;;;5156021;27;20053;-75
2022/08/17 05:42:49;;;;;;;79.65;41.33;;;18.40;99.90;;;;;;5156373;27;20099;-72
2022/08/17 05:45:18;;;;;;;75.30;41.25;;;18.30;99.90;;;;;;5137809;27;20042;-72
2022/08/17 05:47:45;;;;;;;74.85;40.90;;;18.40;99.90;;;;;;5156761;27;20055;-74
2022/08/17 05:50:24;;;;;;;81.95;44.55;;;18.40;99.90;;;;;;5137793;27;20078;-73
2022/08/17 05:53:09;;;;;;;72.75;42.10;;;18.30;99.90;;;;;;5156557;27;20057;-72
2022/08/17 05:55:46;;;;;;;71.82;41.10;;;18.40;99.90;;;;;;5156130;27;20039;-79
2022/08/17 05:58:44;;;;;;;75.60;41.00;;;18.40;99.90;;;;;;5156359;27;20047;-73
2022/08/17 06:01:53;;;;;;;70.80;39.97;;;18.40;99.90;;;;;;5156632;27;20059;-73
2022/08/17 06:04:49;;;;;;;69.90;40.15;;;18.50;99.90;;;;;;5116499;27;20470;-72
2022/08/17 06:07:29;;;;;;;68.18;40.60;;;18.50;99.90;;;;;;5120083;27;20034;-74
2022/08/17 06:10:00;;;;;;;74.80;39.92;;;18.50;99.90;;;;;;5137327;27;20043;-74
2022/08/17 06:12:45;;;;;;;70.95;40.92;;;18.50;99.90;;;;;;5156171;27;20050;-74
2022/08/17 06:15:11;;;;;;;71.50;40.50;;;18.60;99.90;;;;;;5155313;27;20039;-74
2022/08/17 06:17:38;;;;;;;72.85;40.75;;;18.70;99.90;;;;;;5156076;27;20118;-73
2022/08/17 06:20:10;;;;;;;68.75;40.25;;;18.80;99.90;;;;;;5137187;27;20043;-73
2022/08/17 06:22:44;;;;;;;65.00;40.75;;;18.80;99.90;;;;;;5155624;27;20107;-75
2022/08/17 06:25:30;;;;;;;66.47;39.17;;;18.90;99.90;;;;;;5137483;27;20047;-73
2022/08/17 06:28:13;;;;;;;63.55;39.72;;;18.90;99.90;;;;;;5155329;27;20057;-77
2022/08/17 06:30:57;;;;;;;61.25;37.45;;;18.90;99.90;;;;;;5155150;27;20091;-73
2022/08/17 06:33:36;;;;;;;56.88;36.60;;;19.00;99.90;;;;;;5136640;27;20103;-72
2022/08/17 06:36:17;;;;;;;56.42;36.70;;;19.00;99.90;;;;;;5154777;27;20466;-73
2022/08/17 06:39:01;;;;;;;60.28;36.47;;;19.10;99.90;;;;;;5135907;27;20050;-73
2022/08/17 06:42:02;;;;;;;60.40;36.80;;;19.20;99.90;;;;;;5136478;27;20047;-79
2022/08/17 06:44:48;;;;;;;59.75;38.33;;;19.20;99.90;;;;;;5155675;27;20070;-79
2022/08/17 06:47:30;;;;;;;55.63;35.53;;;19.30;99.90;;;;;;5155520;27;20042;-73
2022/08/17 06:50:17;;;;;;;60.55;34.47;;;19.50;99.90;;;;;;5136782;27;20535;-73
2022/08/17 06:52:59;;;;;;;52.22;32.63;;;19.60;99.90;;;;;;5136446;27;20046;-72
2022/08/17 06:55:33;;;;;;;49.72;34.20;;;19.70;99.90;;;;;;5136343;27;20046;-73
2022/08/17 06:58:05;;;;;;;54.30;35.53;;;19.60;99.90;;;;;;5155334;27;20046;-74
2022/08/17 07:00:39;;;;;;;52.63;34.30;;;19.70;99.90;;;;;;5136314;27;20051;-73
2022/08/17 07:03:10;;;;;;;52.10;33.22;;;19.80;99.90;;;;;;5154888;27;20049;-72
2022/08/17 07:05:52;;;;;;;54.30;35.30;;;19.90;99.90;;;;;;5136428;27;20056;-77
2022/08/17 07:08:43;;;;;;;54.22;33.17;;;19.90;99.90;;;;;;5136394;27;20129;-71
2022/08/17 07:11:16;;;;;;;50.20;32.42;;;20.00;99.90;;;;;;5136842;27;20043;-71
2022/08/17 07:14:02;;;;;;;48.78;30.63;;;20.00;99.90;;;;;;5155455;27;20138;-71
2022/08/17 07:16:40;;;;;;;44.35;30.15;;;20.00;99.90;;;;;;5118241;27;20111;-70
2022/08/17 07:19:07;;;;;;;47.72;30.33;;;20.10;99.90;;;;;;5136483;27;20082;-70
2022/08/17 07:21:53;;;;;;;48.63;30.38;;;20.00;99.90;;;;;;5136647;27;20400;-72
2022/08/17 07:24:30;;;;;;;44.75;28.65;;;20.10;99.90;;;;;;5136722;27;20042;-69
2022/08/17 07:27:22;;;;;;;42.22;27.92;;;20.10;99.90;;;;;;5135798;27;20070;-70
2022/08/17 07:30:00;;;;;;;46.50;28.90;;;20.10;99.90;;;;;;5130820;27;20184;-70
2022/08/17 07:32:30;;;;;;;45.25;27.83;;;20.20;99.90;;;;;;5154268;27;20058;-71
2022/08/17 07:35:09;;;;;;;42.85;28.20;;;20.40;99.90;;;;;;5154223;27;20432;-69
2022/08/17 07:37:42;;;;;;;44.75;29.00;;;20.50;99.90;;;;;;5135687;27;20125;-70
2022/08/17 07:40:38;;;;;;;47.10;27.80;;;20.70;99.90;;;;;;5136546;27;20066;-72
2022/08/17 07:43:13;;;;;;;50.15;29.52;;;20.80;99.90;;;;;;5116476;27;20059;-71
2022/08/17 07:48:52;;;;;;;48.67;30.52;;;20.90;99.90;;;;;;5156607;27;20169;-70
2022/08/17 07:51:29;;;;;;;49.05;30.27;;;20.70;99.90;;;;;;5161242;27;20133;-71
2022/08/17 07:53:56;;;;;;;;;;;20.70;99.90;;;;;;5143352;27;20051;-73
2022/08/17 07:56:39;;;;;;;43.33;28.50;;;20.80;99.90;;;;;;5142970;27;20256;-75
2022/08/17 07:59:11;;;;;;;46.13;28.60;;;20.90;99.90;;;;;;5124931;27;20065;-72
2022/08/17 08:01:37;;;;;;;42.53;28.48;;;21.20;99.90;;;;;;5142126;27;20043;-72
2022/08/17 08:04:36;;;;;;;42.60;30.00;;;21.20;99.90;;;;;;5161011;27;20194;-70
2022/08/17 08:07:11;;;;;;;50.08;31.38;;;21.30;99.90;;;;;;5160300;27;20482;-71
2022/08/17 08:09:57;;;;;;;46.00;30.83;;;21.40;99.90;;;;;;5160642;27;20522;-70
2022/08/17 08:12:28;;;;;;;47.60;29.48;;;21.60;99.90;;;;;;5142850;27;20101;-70
2022/08/17 08:15:08;;;;;;;42.03;27.77;;;21.80;99.90;;;;;;5160492;27;20043;-70
2022/08/17 08:17:45;;;;;;;46.45;29.88;;;21.90;99.90;;;;;;5161030;27;20109;-69
2022/08/17 08:20:11;;;;;;;45.72;29.50;;;21.70;99.90;;;;;;5142318;27;20435;-70
2022/08/17 08:23:18;;;;;;;43.70;30.00;;;21.70;99.90;;;;;;5142205;27;20050;-70
2022/08/17 08:26:12;;;;;;;45.95;28.45;;;21.60;99.90;;;;;;5056177;28;20172;-72
2022/08/17 08:28:53;;;;;;;45.97;28.23;;;21.60;99.90;;;;;;5159077;27;20094;-88
2022/08/17 08:31:44;;;;;;;49.40;29.65;;;21.70;99.90;;;;;;5125036;27;20058;-71
2022/08/17 08:34:42;;;;;;;45.60;30.15;;;21.70;99.90;;;;;;5145439;27;20182;-70
2022/08/17 08:37:50;;;;;;;46.80;31.00;;;21.70;99.90;;;;;;5160769;27;20062;-71
2022/08/17 08:40:28;;;;;;;48.72;31.63;;;21.60;99.90;;;;;;5142336;27;20049;-70
2022/08/17 08:42:55;;;;;;;46.25;30.25;;;21.50;99.90;;;;;;5141908;27;20086;-72
2022/08/17 08:45:32;;;;;;;45.78;29.95;;;21.60;99.90;;;;;;5159761;27;20505;-69
2022/08/17 08:48:05;;;;;;;47.55;30.13;;;21.70;99.90;;;;;;5142370;27;20394;-71
2022/08/17 08:50:46;;;;;;;44.53;29.35;;;21.80;99.90;;;;;;5160527;27;20042;-71
2022/08/17 08:53:47;;;;;;;44.33;29.38;;;21.80;99.90;;;;;;5160550;27;20158;-71
2022/08/17 08:56:34;;;;;;;46.40;28.63;;;21.80;99.90;;;;;;5141860;27;20481;-70
2022/08/17 08:59:34;;;;;;;44.45;30.23;;;21.90;99.90;;;;;;5141835;27;20072;-70
2022/08/17 09:02:32;;;;;;;49.47;29.33;;;21.70;99.90;;;;;;5156501;27;20078;-70
2022/08/17 09:05:25;;;;;;;42.97;28.52;;;21.60;99.90;;;;;;5087578;27;20058;-73
2022/08/17 09:08:15;;;;;;;47.55;29.58;;;21.80;99.90;;;;;;5138987;27;20053;-71
2022/08/17 09:11:03;;;;;;;44.50;27.42;;;21.80;99.90;;;;;;5156768;27;20493;-83
2022/08/17 09:13:47;;;;;;;42.15;28.10;;;21.80;99.90;;;;;;5121141;27;20055;-70
2022/08/17 09:16:19;;;;;;;44.75;27.10;;;21.70;99.90;;;;;;5156997;27;20053;-72
2022/08/17 09:18:55;;;;;;;41.95;28.15;;;21.80;99.90;;;;;;5156817;27;20042;-72
2022/08/17 09:21:44;;;;;;;44.30;27.88;;;21.90;99.90;;;;;;5156902;27;20129;-71
2022/08/17 09:24:15;;;;;;;42.97;27.50;;;21.80;99.90;;;;;;5157423;27;20375;-71
2022/08/17 09:26:50;;;;;;;45.38;28.77;;;22.00;99.90;;;;;;5156538;27;20126;-71
2022/08/17 09:29:16;;;;;;;41.75;28.25;;;22.00;99.90;;;;;;5156713;27;20056;-71
2022/08/17 09:31:51;;;;;;;;;;;22.00;99.90;;;;;;5157379;27;20053;-77
2022/08/17 09:34:27;;;;;;;43.05;29.45;;;21.70;99.90;;;;;;5120959;27;19919;-76
2022/08/17 09:37:05;;;;;;;39.88;26.60;;;21.70;99.90;;;;;;5138755;27;20379;-71
2022/08/17 09:39:56;;;;;;;41.50;29.98;;;21.90;99.90;;;;;;5156817;27;20416;-77
2022/08/17 09:42:28;;;;;;;40.33;26.83;;;21.90;99.90;;;;;;5109011;27;20059;-71
2022/08/17 09:45:35;;;;;;;40.53;25.92;;;22.00;99.90;;;;;;5138322;27;20043;-71
2022/08/17 09:48:06;;;;;;;38.28;25.15;;;22.20;99.90;;;;;;5098810;27;20054;-71
2022/08/17 09:51:08;;;;;;;35.30;24.17;;;22.40;99.90;;;;;;5137708;27;20043;-69
2022/08/17 09:53:38;;;;;;;41.90;26.15;;;22.80;99.90;;;;;;5156197;27;20340;-70
2022/08/17 09:56:39;;;;;;;35.58;23.30;;;22.70;99.90;;;;;;5155876;27;20455;-69
2022/08/17 09:59:28;;;;;;;37.28;25.20;;;23.00;99.90;;;;;;5137994;27;20198;-70
2022/08/17 10:02:17;;;;;;;39.88;25.20;;;22.90;99.90;;;;;;5137859;27;20102;-70
2022/08/17 10:05:04;;;;;;;33.22;23.77;;;22.90;99.90;;;;;;5156587;27;20050;-71
2022/08/17 10:07:38;;;;;;;;;;;23.10;99.90;;;;;;5156286;27;20078;-71
2022/08/17 10:10:33;;;;;;;37.13;23.65;;;23.00;99.90;;;;;;5156698;27;19919;-72
2022/08/17 10:13:08;;;;;;;34.72;23.65;;;23.00;99.90;;;;;;5149244;27;20145;-71
2022/08/17 10:15:55;;;;;;;39.33;25.38;;;23.30;99.90;;;;;;5137349;27;20352;-73
2022/08/17 10:18:52;;;;;;;40.50;24.95;;;23.50;99.90;;;;;;5137885;27;20046;-71
2022/08/17 10:26:56;;;;;;;36.53;24.95;;;23.70;99.90;;;;;;5155502;27;20047;-71
2022/08/17 10:29:31;;;;;;;34.28;24.10;;;23.80;99.90;;;;;;5119921;27;20085;-70
2022/08/17 10:32:03;;;;;;;32.88;23.00;;;24.10;99.90;;;;;;5137782;27;20423;-71
2022/08/17 10:34:50;;;;;;;36.28;24.67;;;24.10;99.90;;;;;;5156056;27;20046;-71
2022/08/17 10:37:27;;;;;;;35.38;23.83;;;24.00;99.90;;;;;;5155355;27;20046;-73
2022/08/17 10:40:14;;;;;;;36.85;24.13;;;23.90;99.90;;;;;;5137565;27;20179;-71
2022/08/17 10:42:57;;;;;;;32.88;23.17;;;24.20;99.90;;;;;;5154992;27;20375;-71
2022/08/17 10:45:35;;;;;;;33.33;23.80;;;24.20;99.90;;;;;;5136912;27;20046;-72
2022/08/17 10:48:24;;;;;;;37.38;24.48;;;24.10;99.90;;;;;;5136877;27;20057;-75
2022/08/17 10:51:00;;;;;;;35.75;24.10;;;23.90;99.90;;;;;;5138372;27;20054;-83
2022/08/17 10:53:32;;;;;;;35.13;23.55;;;23.90;99.90;;;;;;5155146;27;20379;-70
2022/08/17 10:56:38;;;;;;;32.95;23.17;;;23.90;99.90;;;;;;5136923;27;20328;-71
2022/08/17 10:59:04;;;;;;;35.88;23.85;;;23.90;99.90;;;;;;5155753;27;20102;-71
2022/08/17 11:01:36;;;;;;;39.28;25.00;;;23.80;99.90;;;;;;5136335;27;20047;-70
2022/08/17 11:04:17;;;;;;;43.20;25.40;;;23.80;99.90;;;;;;5154688;27;20362;-71
2022/08/17 11:07:00;;;;;;;33.72;24.15;;;23.90;99.90;;;;;;5154972;27;20047;-74
2022/08/17 11:09:33;;;;;;;34.88;24.58;;;23.90;99.90;;;;;;5155304;27;20138;-69
2022/08/17 11:12:16;;;;;;;34.40;24.20;;;23.60;99.90;;;;;;5137003;27;20047;-73
2022/08/17 11:14:57;;;;;;;35.00;24.95;;;23.80;99.90;;;;;;5137075;27;20379;-70
2022/08/17 11:18:00;;;;;;;36.50;26.42;;;24.00;99.90;;;;;;5136578;27;20386;-71
2022/08/17 11:21:13;;;;;;;36.92;24.80;;;23.90;99.90;;;;;;5154787;27;20046;-71
2022/08/17 11:23:47;;;;;;;32.33;23.38;;;24.20;99.90;;;;;;5154590;27;20049;-71
2022/08/17 11:26:29;;;;;;;35.85;23.42;;;24.20;99.90;;;;;;5136411;27;20035;-70
2022/08/17 11:29:03;;;;;;;38.63;26.33;;;24.50;99.90;;;;;;5135474;27;20054;-76
2022/08/17 11:31:57;;;;;;;37.30;25.17;;;24.40;99.90;;;;;;5136279;27;20130;-71
2022/08/17 11:34:27;;;;;;;36.90;24.42;;;24.30;99.90;;;;;;5143907;27;20572;-71
2022/08/17 11:37:27;;;;;;;38.83;26.02;;;24.20;99.90;;;;;;5154368;27;20035;-72
2022/08/17 11:40:29;;;;;;;36.95;24.45;;;24.20;99.90;;;;;;5154040;27;20129;-71
2022/08/17 11:43:33;;;;;;;39.15;25.15;;;24.30;99.90;;;;;;5135591;27;20406;-72
2022/08/17 11:46:01;;;;;;;38.63;25.42;;;24.10;99.90;;;;;;5134110;27;20494;-73
2022/08/17 11:52:00;;;;;;;39.88;24.77;;;23.80;99.90;;;;;;5154206;27;20150;-71
2022/08/17 11:54:29;;;;;;;38.17;25.38;;;23.90;99.90;;;;;;5154232;27;20378;-71
2022/08/17 11:56:57;;;;;;;38.13;24.88;;;23.80;99.90;;;;;;5153632;27;20078;-70
2022/08/17 11:59:32;;;;;;;37.45;24.30;;;23.80;99.90;;;;;;5154111;27;20043;-73
2022/08/17 12:02:00;;;;;;;39.40;25.00;;;23.70;99.90;;;;;;5154185;27;20038;-75
2022/08/17 12:04:29;;;;;;;38.63;25.52;;;23.70;99.90;;;;;;5154042;27;20390;-71
2022/08/17 12:07:19;;;;;;;40.15;26.15;;;23.80;99.90;;;;;;5153903;27;20070;-72
2022/08/17 12:09:49;;;;;;;42.45;24.95;;;23.60;99.90;;;;;;5154991;27;20043;-72
2022/08/17 12:12:32;;;;;;;41.05;27.17;;;23.80;99.90;;;;;;5154847;27;20154;-74
2022/08/17 12:15:00;;;;;;;42.58;26.30;;;23.40;99.90;;;;;;5136705;27;20034;-72
2022/08/17 12:17:28;;;;;;;39.28;25.45;;;23.30;99.90;;;;;;5136782;27;20158;-71
2022/08/17 12:20:06;;;;;;;39.80;25.98;;;23.40;99.90;;;;;;5153869;27;20046;-71
2022/08/17 12:22:52;;;;;;;41.03;26.70;;;23.60;99.90;;;;;;5153949;27;20149;-72
2022/08/17 12:25:48;;;;;;;40.15;26.85;;;23.30;99.90;;;;;;5154766;27;20043;-72
2022/08/17 12:28:35;;;;;;;39.90;25.40;;;23.40;99.90;;;;;;5154640;27;20043;-71
2022/08/17 12:31:24;;;;;;;40.45;27.75;;;23.70;99.90;;;;;;5155745;27;20191;-72
2022/08/17 12:33:50;;;;;;;43.17;25.92;;;23.70;99.90;;;;;;5156171;27;20051;-73
2022/08/17 12:36:23;;;;;;;39.53;25.42;;;24.00;99.90;;;;;;5139750;27;20058;-71
2022/08/17 12:39:08;;;;;;;39.08;26.10;;;24.10;99.90;;;;;;5143237;27;20107;-71
2022/08/17 12:41:34;;;;;;;42.88;26.77;;;24.40;99.90;;;;;;5127855;27;20050;-71
2022/08/17 12:44:14;;;;;;;42.10;27.73;;;24.30;99.90;;;;;;5166194;27;20087;-70
2022/08/17 12:47:03;;;;;;;40.55;25.65;;;24.20;99.90;;;;;;5164721;27;20067;-72
2022/08/17 12:49:34;;;;;;;39.65;24.63;;;24.10;99.90;;;;;;5144429;27;20097;-72
2022/08/17 12:52:06;;;;;;;45.10;25.45;;;24.30;99.90;;;;;;5162299;27;20073;-73
2022/08/17 12:54:40;;;;;;;40.70;24.50;;;24.30;99.90;;;;;;5143382;27;20039;-72
2022/08/17 12:57:28;;;;;;;36.35;27.00;;;24.40;99.90;;;;;;5162805;27;20047;-70
2022/08/17 13:00:20;;;;;;;38.42;25.65;;;24.10;99.90;;;;;;5160295;27;20066;-72
2022/08/17 13:02:53;;;;;;;39.10;25.23;;;24.10;99.90;;;;;;5139521;27;20053;-71
2022/08/17 13:05:34;;;;;;;39.45;26.60;;;24.20;99.90;;;;;;5142336;27;20133;-72
2022/08/17 13:08:03;;;;;;;43.67;26.33;;;24.20;99.90;;;;;;5158541;27;20110;-74
2022/08/17 13:10:36;;;;;;;39.20;27.55;;;24.30;99.90;;;;;;5157641;27;20118;-72
2022/08/17 13:13:16;;;;;;;43.10;27.13;;;24.20;99.90;;;;;;5158123;27;20043;-71
2022/08/17 13:16:01;;;;;;;43.90;28.30;;;24.20;99.90;;;;;;5138213;27;20053;-71
2022/08/17 13:18:39;;;;;;;44.80;28.33;;;24.10;99.90;;;;;;5120982;27;20043;-71
2022/08/17 13:21:11;;;;;;;47.33;29.67;;;24.10;99.90;;;;;;5138931;27;20137;-72
2022/08/17 13:23:37;;;;;;;42.00;29.95;;;24.00;99.90;;;;;;5157050;27;20043;-71
2022/08/17 13:26:13;;;;;;;44.75;29.08;;;23.60;99.90;;;;;;5156803;27;20114;-72
2022/08/17 13:28:48;;;;;;;46.40;28.73;;;23.30;99.90;;;;;;5156903;27;20446;-71
2022/08/17 13:31:26;;;;;;;48.65;31.42;;;23.10;99.90;;;;;;5138196;27;20042;-71
2022/08/17 13:34:11;;;;;;;50.17;33.75;;;22.90;99.90;;;;;;5156691;27;20101;-72
2022/08/17 13:36:37;;;;;;;50.00;33.50;;;22.80;99.90;;;;;;5138445;27;20129;-70
2022/08/17 13:39:17;;;;;;;51.38;33.95;;;22.70;99.90;;;;;;5156842;27;20089;-75